Time;durP1;ratioP1;P1;durP2;ratioP2;P2;SDS_P1;SDS_P2;PMS_P1;PMS_P2;Temp;Humidity;BMP_temperature;BMP_pressure;BME280_temperature;BME280_humidity;BME280_pressure;Samples;Min_cycle;Max_cycle;Signal;HPM_P1;HPM_P2
2021/10/22 00:02:14;;;;;;;0.20;0.20;;;6.90;99.90;;;;;;5033640;28;20231;-66
2021/10/22 00:04:40;;;;;;;0.20;0.20;;;6.90;99.90;;;;;;5032572;28;20178;-66
2021/10/22 00:07:05;;;;;;;0.60;0.23;;;6.80;99.90;;;;;;5033488;28;20456;-66
2021/10/22 00:09:31;;;;;;;0.53;0.50;;;6.90;99.90;;;;;;5033335;28;20169;-66
2021/10/22 00:11:57;;;;;;;0.20;0.20;;;6.90;99.90;;;;;;5033635;28;20184;-67
2021/10/22 00:14:22;;;;;;;0.87;0.80;;;7.00;99.90;;;;;;5033591;28;20181;-66
2021/10/22 00:16:48;;;;;;;0.20;0.20;;;7.00;99.90;;;;;;5033703;28;20198;-66
2021/10/22 00:19:14;;;;;;;0.20;0.10;;;7.00;99.90;;;;;;5032375;28;20183;-64
2021/10/22 00:21:41;;;;;;;7.15;0.82;;;7.00;99.90;;;;;;5033623;28;20268;-64
2021/10/22 00:24:06;;;;;;;0.57;0.40;;;7.00;99.90;;;;;;5032522;28;20348;-64
2021/10/22 00:26:32;;;;;;;0.20;0.20;;;6.90;99.90;;;;;;5033315;28;20665;-63
2021/10/22 00:28:58;;;;;;;0.30;0.20;;;7.00;99.90;;;;;;5033381;28;20228;-64
2021/10/22 00:31:24;;;;;;;0.50;0.50;;;7.00;99.90;;;;;;5033438;28;20498;-64
2021/10/22 00:33:50;;;;;;;0.83;0.40;;;7.00;99.90;;;;;;5032442;28;20177;-63
2021/10/22 00:36:17;;;;;;;0.20;0.20;;;7.00;99.90;;;;;;5032464;28;20260;-63
2021/10/22 00:38:43;;;;;;;0.20;0.20;;;7.00;99.90;;;;;;5033027;28;20430;-62
2021/10/22 00:41:09;;;;;;;0.37;0.37;;;6.90;99.90;;;;;;5033362;28;20186;-62
2021/10/22 00:43:35;;;;;;;0.20;0.20;;;7.00;99.90;;;;;;5033414;28;20557;-64
2021/10/22 00:46:01;;;;;;;0.30;0.20;;;6.90;99.90;;;;;;5032355;28;20178;-64
2021/10/22 00:48:27;;;;;;;0.30;0.30;;;7.00;99.90;;;;;;5033093;28;20200;-64
2021/10/22 00:51:00;;;;;;;1.00;0.60;;;7.00;99.90;;;;;;5033353;28;20178;-63
2021/10/22 00:53:27;;;;;;;0.85;0.73;;;6.90;99.90;;;;;;5033333;28;20416;-65
2021/10/22 00:55:54;;;;;;;0.20;0.10;;;6.90;99.90;;;;;;5033191;28;20178;-66
2021/10/22 00:58:21;;;;;;;0.20;0.20;;;6.90;99.90;;;;;;5032959;28;20543;-66
2021/10/22 01:00:47;;;;;;;0.45;0.30;;;6.90;99.90;;;;;;5033139;28;20522;-66
2021/10/22 01:03:13;;;;;;;0.40;0.40;;;6.90;99.90;;;;;;5036238;28;20265;-65
2021/10/22 01:05:39;;;;;;;0.40;0.20;;;6.90;99.90;;;;;;5036667;28;20748;-64
2021/10/22 01:08:08;;;;;;;0.20;0.20;;;7.00;99.90;;;;;;5035467;28;20221;-65
2021/10/22 01:10:37;;;;;;;0.30;0.30;;;7.00;99.90;;;;;;5036636;28;20193;-66
2021/10/22 01:13:02;;;;;;;0.30;0.25;;;7.00;99.90;;;;;;5036724;28;20275;-66
2021/10/22 01:15:28;;;;;;;0.30;0.23;;;7.00;99.90;;;;;;5035705;28;20272;-66
2021/10/22 01:17:55;;;;;;;2.50;0.87;;;7.00;99.90;;;;;;5036559;28;20174;-65
2021/10/22 01:20:22;;;;;;;0.20;0.10;;;7.10;99.90;;;;;;5035672;28;20177;-66
2021/10/22 01:22:51;;;;;;;0.20;0.20;;;7.00;99.90;;;;;;5036661;28;20269;-65
2021/10/22 01:25:19;;;;;;;0.65;0.65;;;7.00;99.90;;;;;;5036823;28;20169;-65
2021/10/22 01:27:46;;;;;;;0.30;0.20;;;7.00;99.90;;;;;;5036467;28;20197;-66
2021/10/22 01:30:15;;;;;;;0.30;0.20;;;7.00;99.90;;;;;;5036419;28;20193;-65
2021/10/22 01:32:40;;;;;;;0.50;0.50;;;7.10;99.90;;;;;;5036400;28;20185;-66
2021/10/22 01:35:08;;;;;;;0.20;0.20;;;7.10;99.90;;;;;;5036693;28;20181;-66
2021/10/22 01:37:35;;;;;;;1.83;1.10;;;7.10;99.90;;;;;;5036223;28;20178;-63
2021/10/22 01:40:01;;;;;;;0.20;0.20;;;7.10;99.90;;;;;;5035905;28;20177;-63
2021/10/22 01:42:28;;;;;;;0.40;0.40;;;7.10;99.90;;;;;;5036185;28;20208;-63
2021/10/22 01:44:53;;;;;;;0.57;0.57;;;7.10;99.90;;;;;;5035161;28;20489;-64
2021/10/22 01:47:20;;;;;;;0.20;0.20;;;7.10;99.90;;;;;;5035854;28;20209;-63
2021/10/22 01:49:45;;;;;;;0.70;0.50;;;7.00;99.90;;;;;;5035842;28;20177;-65
2021/10/22 01:52:11;;;;;;;0.40;0.37;;;7.00;99.90;;;;;;5036038;28;20614;-65
2021/10/22 01:54:36;;;;;;;3.63;0.90;;;7.00;99.90;;;;;;5034941;28;20653;-65
2021/10/22 01:57:03;;;;;;;0.20;0.10;;;7.00;99.90;;;;;;5035995;28;20182;-65
2021/10/22 01:59:29;;;;;;;0.20;0.10;;;7.10;99.90;;;;;;5034953;28;20182;-65
2021/10/22 02:01:55;;;;;;;0.20;0.20;;;7.00;99.90;;;;;;5035350;28;20514;-64
2021/10/22 02:04:20;;;;;;;0.20;0.10;;;7.00;99.90;;;;;;5034842;28;20466;-64
2021/10/22 02:06:48;;;;;;;1.13;1.03;;;7.10;99.90;;;;;;5035983;28;20296;-65
2021/10/22 02:09:14;;;;;;;0.30;0.20;;;7.10;99.90;;;;;;5035569;28;20177;-65
2021/10/22 02:11:40;;;;;;;0.30;0.20;;;7.10;99.90;;;;;;5034605;28;20228;-65
2021/10/22 02:14:06;;;;;;;0.60;0.40;;;7.00;99.90;;;;;;5035561;28;20598;-65
2021/10/22 02:16:31;;;;;;;0.20;0.20;;;7.00;99.90;;;;;;5034447;28;20208;-65
2021/10/22 02:18:57;;;;;;;0.20;0.20;;;7.00;99.90;;;;;;5035194;28;20223;-65
2021/10/22 02:21:22;;;;;;;0.30;0.30;;;7.10;99.90;;;;;;5035445;28;20235;-67
2021/10/22 02:23:48;;;;;;;3.20;1.80;;;7.20;99.90;;;;;;5035548;28;20312;-65
2021/10/22 02:26:13;;;;;;;0.40;0.40;;;7.20;99.90;;;;;;5034785;28;20188;-65
2021/10/22 02:28:39;;;;;;;0.20;0.20;;;7.30;99.90;;;;;;5035451;28;20181;-65
2021/10/22 02:31:05;;;;;;;0.30;0.20;;;7.30;99.90;;;;;;5035235;28;20192;-65
2021/10/22 02:33:30;;;;;;;0.47;0.17;;;7.30;99.90;;;;;;5035014;28;20219;-65
2021/10/22 02:35:56;;;;;;;0.70;0.30;;;7.30;99.90;;;;;;5035062;28;20181;-65
2021/10/22 02:38:21;;;;;;;0.50;0.23;;;7.30;99.90;;;;;;5034828;28;20184;-65
2021/10/22 02:40:47;;;;;;;0.30;0.30;;;7.30;99.90;;;;;;5035158;28;20290;-65
2021/10/22 02:43:12;;;;;;;2.73;0.60;;;7.30;99.90;;;;;;5033927;28;20657;-65
2021/10/22 02:45:38;;;;;;;0.20;0.20;;;7.20;99.90;;;;;;5034741;28;20177;-65
2021/10/22 02:48:04;;;;;;;0.40;0.30;;;7.20;99.90;;;;;;5034502;28;20271;-65
2021/10/22 02:50:29;;;;;;;1.03;0.33;;;7.20;99.90;;;;;;5033757;28;20202;-65
2021/10/22 02:52:55;;;;;;;1.37;0.63;;;7.20;99.90;;;;;;5034873;28;20170;-65
2021/10/22 02:55:20;;;;;;;0.40;0.30;;;7.20;99.90;;;;;;5033691;28;20235;-65
2021/10/22 02:57:46;;;;;;;0.33;0.30;;;7.10;99.90;;;;;;5034519;28;20189;-65
2021/10/22 03:00:12;;;;;;;0.30;0.30;;;7.10;99.90;;;;;;5034352;28;20247;-65
2021/10/22 03:02:45;;;;;;;0.20;0.20;;;7.10;99.90;;;;;;5034393;28;20515;-65
2021/10/22 03:05:11;;;;;;;5.35;0.82;;;7.10;99.90;;;;;;5034490;28;20237;-65
2021/10/22 03:07:37;;;;;;;0.90;0.90;;;7.20;99.90;;;;;;5033913;28;20297;-65
2021/10/22 03:10:05;;;;;;;0.20;0.20;;;7.10;99.90;;;;;;5034115;28;20431;-65
2021/10/22 03:12:30;;;;;;;0.45;0.45;;;7.10;99.90;;;;;;5034217;28;20626;-65
2021/10/22 03:14:56;;;;;;;0.30;0.20;;;7.00;99.90;;;;;;5034361;28;20184;-65
2021/10/22 03:17:22;;;;;;;0.93;0.40;;;7.10;99.90;;;;;;5034214;28;20693;-65
2021/10/22 03:19:47;;;;;;;0.20;0.20;;;7.20;99.90;;;;;;5034050;28;20189;-65
2021/10/22 03:22:13;;;;;;;0.20;0.10;;;7.10;99.90;;;;;;5034463;28;20224;-64
2021/10/22 03:24:39;;;;;;;0.20;0.20;;;7.10;99.90;;;;;;5033419;28;20524;-64
2021/10/22 03:27:10;;;;;;;0.20;0.17;;;7.20;99.90;;;;;;5032992;28;20213;-64
2021/10/22 03:29:36;;;;;;;0.40;0.20;;;7.20;99.90;;;;;;5033926;28;20200;-64
2021/10/22 03:32:02;;;;;;;0.30;0.20;;;7.20;99.90;;;;;;5034040;28;20202;-64
2021/10/22 03:34:27;;;;;;;1.07;0.40;;;7.30;99.90;;;;;;5034147;28;20219;-64
2021/10/22 03:36:53;;;;;;;0.20;0.20;;;7.30;99.90;;;;;;5033973;28;20515;-64
2021/10/22 03:39:18;;;;;;;0.20;0.20;;;7.30;99.90;;;;;;5033934;28;20301;-64
2021/10/22 03:41:44;;;;;;;0.93;0.50;;;7.30;99.90;;;;;;5033961;28;20189;-64
2021/10/22 03:44:09;;;;;;;0.30;0.27;;;7.30;99.90;;;;;;5033894;28;20189;-65
2021/10/22 03:46:35;;;;;;;0.57;0.40;;;7.30;99.90;;;;;;5034165;28;20213;-64
2021/10/22 03:49:00;;;;;;;0.47;0.30;;;7.30;99.90;;;;;;5033700;28;20256;-65
2021/10/22 03:51:26;;;;;;;0.30;0.30;;;7.30;99.90;;;;;;5033954;28;20200;-65
2021/10/22 03:53:51;;;;;;;0.40;0.20;;;7.30;99.90;;;;;;5032734;28;20177;-65
2021/10/22 03:56:17;;;;;;;0.33;0.33;;;7.30;99.90;;;;;;5032931;28;20275;-65
2021/10/22 03:58:43;;;;;;;0.50;0.50;;;7.40;99.90;;;;;;5033425;28;20270;-65
2021/10/22 04:01:08;;;;;;;0.20;0.20;;;7.30;99.90;;;;;;5032579;28;20182;-65
2021/10/22 04:03:35;;;;;;;0.20;0.20;;;7.30;99.90;;;;;;5033590;28;20264;-65
2021/10/22 04:06:00;;;;;;;0.88;0.20;;;7.30;99.90;;;;;;5033355;28;20181;-65
2021/10/22 04:08:26;;;;;;;6.60;0.50;;;7.30;99.90;;;;;;5033244;28;20213;-65
2021/10/22 04:10:51;;;;;;;0.20;0.20;;;7.30;99.90;;;;;;5033390;28;20264;-65
2021/10/22 04:13:18;;;;;;;1.10;0.33;;;7.30;99.90;;;;;;5033438;28;20190;-66
2021/10/22 04:15:43;;;;;;;0.43;0.40;;;7.30;99.90;;;;;;5032367;28;20185;-66
2021/10/22 04:18:10;;;;;;;0.50;0.50;;;7.40;99.90;;;;;;5033055;28;20241;-66
2021/10/22 04:20:36;;;;;;;3.13;0.73;;;7.30;99.90;;;;;;5032881;28;20607;-66
2021/10/22 04:23:01;;;;;;;0.30;0.20;;;7.30;99.90;;;;;;5033273;28;20232;-66
2021/10/22 04:25:28;;;;;;;2.97;0.20;;;7.30;99.90;;;;;;5033207;28;20535;-66
2021/10/22 04:27:54;;;;;;;0.20;0.20;;;7.30;99.90;;;;;;5033001;28;20282;-66
2021/10/22 04:30:21;;;;;;;0.95;0.40;;;7.30;99.90;;;;;;5033001;28;20273;-66
2021/10/22 04:32:47;;;;;;;0.50;0.40;;;7.30;99.90;;;;;;5033107;28;20189;-66
2021/10/22 04:35:13;;;;;;;2.20;0.85;;;7.30;99.90;;;;;;5033353;28;20486;-64
2021/10/22 04:40:33;;;;;;;0.20;0.20;;;7.30;99.90;;;;;;5037029;28;20169;-64
2021/10/22 04:43:01;;;;;;;0.20;0.20;;;7.40;99.90;;;;;;5037178;28;20181;-64
2021/10/22 04:45:28;;;;;;;0.30;0.30;;;7.40;99.90;;;;;;5036989;28;20208;-64
2021/10/22 04:47:54;;;;;;;1.60;0.50;;;7.30;99.90;;;;;;5036804;28;20228;-64
2021/10/22 04:50:20;;;;;;;0.23;0.20;;;7.30;99.90;;;;;;5036823;28;20181;-66
2021/10/22 04:52:46;;;;;;;0.20;0.20;;;7.40;99.90;;;;;;5037112;28;20432;-66
2021/10/22 04:55:11;;;;;;;0.20;0.20;;;7.40;99.90;;;;;;5037008;28;20178;-66
2021/10/22 04:57:37;;;;;;;0.30;0.20;;;7.40;99.90;;;;;;5036846;28;20182;-66
2021/10/22 05:00:05;;;;;;;0.40;0.40;;;7.40;99.90;;;;;;5036412;28;20517;-66
2021/10/22 05:02:31;;;;;;;1.52;0.30;;;7.40;99.90;;;;;;5036842;28;20196;-66
2021/10/22 05:04:57;;;;;;;1.03;0.27;;;7.40;99.90;;;;;;5035747;28;20205;-66
2021/10/22 05:07:22;;;;;;;0.40;0.20;;;7.40;99.90;;;;;;5035716;28;20316;-66
2021/10/22 05:09:48;;;;;;;0.43;0.43;;;7.30;99.90;;;;;;5036351;28;20252;-66
2021/10/22 05:12:13;;;;;;;0.80;0.50;;;7.40;99.90;;;;;;5036514;28;20193;-66
2021/10/22 05:14:40;;;;;;;2.43;1.03;;;7.40;99.90;;;;;;5035732;28;20608;-66
2021/10/22 05:17:05;;;;;;;0.85;0.52;;;7.40;99.90;;;;;;5036343;28;20185;-66
2021/10/22 05:19:31;;;;;;;0.20;0.20;;;7.40;99.90;;;;;;5036163;28;20185;-66
2021/10/22 05:21:57;;;;;;;0.30;0.20;;;7.40;99.90;;;;;;5035404;28;20568;-66
2021/10/22 05:24:23;;;;;;;0.77;0.77;;;7.40;99.90;;;;;;5036082;28;20435;-66
2021/10/22 05:26:49;;;;;;;0.43;0.28;;;7.50;99.90;;;;;;5035625;28;20259;-65
2021/10/22 05:29:14;;;;;;;0.20;0.10;;;7.50;99.90;;;;;;5035629;28;20182;-65
2021/10/22 05:31:40;;;;;;;0.27;0.23;;;7.50;99.90;;;;;;5035866;28;20435;-65
2021/10/22 05:34:06;;;;;;;0.40;0.40;;;7.50;99.90;;;;;;5036079;28;20505;-65
2021/10/22 05:36:31;;;;;;;2.47;0.70;;;7.40;99.90;;;;;;5036563;28;20498;-65
2021/10/22 05:38:57;;;;;;;5.30;0.80;;;7.40;99.90;;;;;;5034601;28;20199;-65
2021/10/22 05:41:22;;;;;;;0.20;0.20;;;7.40;99.90;;;;;;5035931;28;20192;-65
2021/10/22 05:43:50;;;;;;;0.70;0.20;;;7.40;99.90;;;;;;5035777;28;20275;-65
2021/10/22 05:46:18;;;;;;;0.73;0.40;;;7.40;99.90;;;;;;5034314;28;20189;-65
2021/10/22 05:48:44;;;;;;;2.33;0.32;;;7.40;99.90;;;;;;5034558;28;20523;-66
2021/10/22 05:51:10;;;;;;;7.97;0.80;;;7.30;99.90;;;;;;5035541;28;20174;-65
2021/10/22 05:53:35;;;;;;;1.13;0.30;;;7.30;99.90;;;;;;5035445;28;20176;-65
2021/10/22 05:56:01;;;;;;;9.90;1.27;;;7.40;99.90;;;;;;5035162;28;20177;-66
2021/10/22 05:58:27;;;;;;;1.33;0.90;;;7.30;99.90;;;;;;5035143;28;20603;-65
2021/10/22 06:00:52;;;;;;;0.93;0.63;;;7.40;99.90;;;;;;5035751;28;20432;-66
2021/10/22 06:03:18;;;;;;;0.30;0.20;;;7.40;99.90;;;;;;5035498;28;20566;-66
2021/10/22 06:05:43;;;;;;;0.63;0.50;;;7.40;99.90;;;;;;5035668;28;20186;-65
2021/10/22 06:08:09;;;;;;;1.00;0.67;;;7.40;99.90;;;;;;5035238;28;20218;-66
2021/10/22 06:10:35;;;;;;;0.20;0.20;;;7.40;99.90;;;;;;5035411;28;20178;-65
2021/10/22 06:13:01;;;;;;;0.20;0.20;;;7.40;99.90;;;;;;5035341;28;20193;-66
2021/10/22 06:15:29;;;;;;;0.65;0.30;;;7.50;99.90;;;;;;5035278;28;20256;-66
2021/10/22 06:17:54;;;;;;;6.40;1.55;;;7.50;99.90;;;;;;5035126;28;20177;-65
2021/10/22 06:20:43;;;;;;;1.27;1.17;;;7.50;99.90;;;;;;5035007;28;20326;-65
2021/10/22 06:25:39;;;;;;;0.30;0.20;;;7.60;99.90;;;;;;5035307;28;20189;-65
2021/10/22 06:28:05;;;;;;;2.15;1.00;;;7.70;99.90;;;;;;5034631;28;20209;-66
2021/10/22 06:30:32;;;;;;;1.23;0.35;;;7.80;99.90;;;;;;5034717;28;20188;-64
2021/10/22 06:32:57;;;;;;;0.70;0.45;;;7.80;99.90;;;;;;5034885;28;20196;-64
2021/10/22 06:35:23;;;;;;;9.20;1.33;;;7.90;99.90;;;;;;5034836;28;20174;-65
2021/10/22 06:37:49;;;;;;;2.57;1.87;;;8.00;99.90;;;;;;5034640;28;20537;-64
2021/10/22 06:40:15;;;;;;;0.50;0.40;;;7.90;99.90;;;;;;5034833;28;20442;-63
2021/10/22 06:42:41;;;;;;;0.50;0.30;;;8.00;99.90;;;;;;5034714;28;20513;-66
2021/10/22 06:45:07;;;;;;;0.43;0.40;;;8.00;99.90;;;;;;5034820;28;20255;-64
2021/10/22 06:47:32;;;;;;;0.30;0.20;;;8.00;99.90;;;;;;5034715;28;20238;-65
2021/10/22 06:49:58;;;;;;;0.60;0.60;;;8.10;99.90;;;;;;5033915;28;20607;-65
2021/10/22 06:52:24;;;;;;;1.33;0.37;;;8.20;99.90;;;;;;5034770;28;20174;-64
2021/10/22 06:54:51;;;;;;;0.93;0.80;;;8.20;99.90;;;;;;5034538;28;20173;-64
2021/10/22 06:57:16;;;;;;;0.30;0.30;;;8.20;99.90;;;;;;5034332;28;20224;-64
2021/10/22 06:59:42;;;;;;;0.20;0.20;;;8.30;99.90;;;;;;5033336;28;20622;-65
2021/10/22 07:02:08;;;;;;;1.83;1.40;;;8.30;93.60;;;;;;5034318;28;20622;-64
2021/10/22 07:04:33;;;;;;;1.73;0.77;;;8.30;96.40;;;;;;5034246;28;20184;-65
2021/10/22 07:07:14;;;;;;;3.60;0.70;;;8.20;97.00;;;;;;5034480;28;20619;-65
2021/10/22 07:09:41;;;;;;;1.02;1.02;;;8.40;99.90;;;;;;5031425;28;20219;-67
2021/10/22 07:12:06;;;;;;;2.88;0.30;;;8.60;97.90;;;;;;5031931;28;20216;-67
2021/10/22 07:14:34;;;;;;;0.40;0.40;;;8.60;45.00;;;;;;5032206;28;20195;-66
2021/10/22 07:17:00;;;;;;;0.30;0.20;;;8.70;18.40;;;;;;5013387;28;20260;-66
2021/10/22 07:19:26;;;;;;;1.77;0.50;;;8.70;1.00;;;;;;5029639;28;20208;-69
2021/10/22 07:21:52;;;;;;;0.20;0.20;;;8.80;1.00;;;;;;5035980;28;20181;-71
2021/10/22 07:24:22;;;;;;;0.93;0.65;;;9.00;1.00;;;;;;5016633;28;20565;-67
2021/10/22 07:26:48;;;;;;;0.30;0.20;;;9.20;1.00;;;;;;5033875;28;20208;-67
2021/10/22 07:29:14;;;;;;;2.50;0.63;;;9.30;1.00;;;;;;5016266;28;20179;-67
2021/10/22 07:31:40;;;;;;;0.57;0.40;;;9.50;1.00;;;;;;5033579;28;20255;-67
2021/10/22 07:34:08;;;;;;;3.47;0.63;;;9.40;1.00;;;;;;5016202;28;20259;-67
2021/10/22 07:36:33;;;;;;;0.77;0.50;;;9.60;1.00;;;;;;5033740;28;20201;-70
2021/10/22 07:38:59;;;;;;;4.70;0.60;;;9.60;1.00;;;;;;5033214;28;20209;-68
2021/10/22 07:41:24;;;;;;;1.13;0.83;;;9.60;1.00;;;;;;5033617;28;20185;-67
2021/10/22 07:43:50;;;;;;;1.43;1.23;;;9.50;1.00;;;;;;5033441;28;20174;-69
2021/10/22 07:46:16;;;;;;;3.50;2.23;;;9.50;1.00;;;;;;5033696;28;20333;-68
2021/10/22 07:48:43;;;;;;;1.77;0.80;;;9.50;1.00;;;;;;5033075;28;20665;-68
2021/10/22 07:51:09;;;;;;;0.30;0.15;;;9.70;1.00;;;;;;5033010;28;20431;-68
2021/10/22 07:53:35;;;;;;;0.80;0.45;;;9.90;1.00;;;;;;5033291;28;20216;-68
2021/10/22 07:56:00;;;;;;;2.87;0.63;;;9.80;1.00;;;;;;5033730;28;20212;-68
2021/10/22 07:58:26;;;;;;;3.73;2.57;;;9.70;1.00;;;;;;5033182;28;20185;-66
2021/10/22 08:00:52;;;;;;;0.37;0.20;;;9.70;1.00;;;;;;5013185;28;20204;-67
2021/10/22 08:03:17;;;;;;;0.30;0.20;;;9.60;1.00;;;;;;5030704;28;20186;-70
2021/10/22 08:05:43;;;;;;;0.30;0.20;;;9.70;1.00;;;;;;5033010;28;20439;-69
2021/10/22 08:08:09;;;;;;;0.30;0.20;;;9.80;1.00;;;;;;5032945;28;20294;-70
2021/10/22 08:10:36;;;;;;;0.35;0.25;;;9.60;1.00;;;;;;5031145;28;20193;-69
2021/10/22 08:13:04;;;;;;;1.95;0.77;;;9.50;1.00;;;;;;5023954;28;20205;-69
2021/10/22 08:15:30;;;;;;;0.43;0.43;;;9.30;1.00;;;;;;5042512;28;20242;-67
2021/10/22 08:17:56;;;;;;;1.37;1.37;;;9.20;55.10;;;;;;5047095;28;20564;-67
2021/10/22 08:20:23;;;;;;;0.60;0.60;;;9.20;84.60;;;;;;5031708;28;20176;-66
2021/10/22 08:22:50;;;;;;;0.75;0.75;;;9.30;99.90;;;;;;5032302;28;20239;-66
2021/10/22 08:25:17;;;;;;;0.73;0.52;;;9.10;99.90;;;;;;5032426;28;20189;-67
2021/10/22 08:27:46;;;;;;;0.30;0.25;;;9.20;99.90;;;;;;5032870;28;20645;-65
2021/10/22 08:30:17;;;;;;;0.20;0.20;;;9.20;99.90;;;;;;5032776;28;20189;-66
2021/10/22 08:32:49;;;;;;;1.20;0.45;;;9.40;99.90;;;;;;5032746;28;20517;-67
2021/10/22 08:35:15;;;;;;;0.57;0.50;;;9.50;49.60;;;;;;5032858;28;20637;-66
2021/10/22 08:37:40;;;;;;;0.30;0.20;;;9.50;1.00;;;;;;5032510;28;20189;-66
2021/10/22 08:40:07;;;;;;;0.30;0.20;;;9.60;1.00;;;;;;5032526;28;20182;-67
2021/10/22 08:42:33;;;;;;;1.50;0.93;;;9.70;1.00;;;;;;5032677;28;20196;-67
2021/10/22 08:44:59;;;;;;;0.40;0.35;;;9.70;1.00;;;;;;5021308;28;20184;-69
2021/10/22 08:47:29;;;;;;;0.30;0.20;;;9.90;1.00;;;;;;5036638;28;20352;-67
2021/10/22 08:50:06;;;;;;;1.20;0.65;;;10.10;1.00;;;;;;5015103;28;20261;-68
2021/10/22 08:52:31;;;;;;;2.95;1.00;;;10.20;1.00;;;;;;5014914;28;20188;-68
2021/10/22 08:55:07;;;;;;;0.30;0.20;;;10.10;1.00;;;;;;5026918;28;20190;-68
2021/10/22 08:57:36;;;;;;;0.75;0.75;;;10.30;1.00;;;;;;5032486;28;20201;-67
2021/10/22 09:00:03;;;;;;;0.30;0.20;;;10.30;1.00;;;;;;5032561;28;20192;-67
2021/10/22 09:02:29;;;;;;;2.25;1.42;;;10.60;1.00;;;;;;5032696;28;20255;-67
2021/10/22 09:05:00;;;;;;;1.67;0.40;;;10.60;1.00;;;;;;5032534;28;20726;-68
2021/10/22 09:07:43;;;;;;;0.60;0.43;;;10.90;1.00;;;;;;5031435;28;20275;-66
2021/10/22 09:10:11;;;;;;;2.85;0.68;;;11.10;99.90;;;;;;5022817;28;20178;-68
2021/10/22 09:12:42;;;;;;;0.30;0.20;;;10.80;99.90;;;;;;5032152;28;20201;-70
2021/10/22 09:15:08;;;;;;;2.58;0.32;;;10.60;99.90;;;;;;5032263;28;20589;-68
2021/10/22 09:17:38;;;;;;;0.50;0.50;;;10.40;1.00;;;;;;5032483;28;20637;-67
2021/10/22 09:20:07;;;;;;;2.05;0.90;;;10.40;1.00;;;;;;5046174;28;20243;-69
2021/10/22 09:22:34;;;;;;;0.30;0.20;;;10.30;1.00;;;;;;5052925;28;20185;-69
2021/10/22 09:25:07;;;;;;;0.40;0.40;;;10.20;1.00;;;;;;5055824;28;20266;-68
2021/10/22 09:27:42;;;;;;;0.73;0.40;;;10.00;40.40;;;;;;5050193;28;20623;-69
2021/10/22 09:30:41;;;;;;;0.57;0.52;;;9.80;99.90;;;;;;5035558;28;20185;-67
2021/10/22 09:33:12;;;;;;;1.65;1.20;;;9.40;99.90;;;;;;5036049;28;20195;-69
2021/10/22 09:35:46;;;;;;;0.55;0.52;;;9.20;99.90;;;;;;5036245;28;20272;-69
2021/10/22 09:38:19;;;;;;;1.75;0.95;;;9.20;99.90;;;;;;5035918;28;20203;-70
2021/10/22 09:40:53;;;;;;;0.68;0.30;;;9.10;99.90;;;;;;5036050;28;20215;-66
2021/10/22 09:43:20;;;;;;;0.30;0.20;;;9.20;99.90;;;;;;5033710;28;20447;-65
2021/10/22 09:45:48;;;;;;;4.55;1.08;;;9.30;99.90;;;;;;5029185;28;20201;-66
2021/10/22 09:48:31;;;;;;;1.65;0.80;;;9.20;99.90;;;;;;5019255;28;20240;-68
2021/10/22 09:51:23;;;;;;;0.63;0.50;;;9.10;99.90;;;;;;5035633;28;20665;-67
2021/10/22 09:53:49;;;;;;;2.42;1.35;;;9.10;99.90;;;;;;5035109;28;20181;-67
2021/10/22 09:56:21;;;;;;;0.40;0.40;;;9.00;99.90;;;;;;5034797;28;20178;-67
2021/10/22 09:59:03;;;;;;;1.27;0.90;;;9.00;99.90;;;;;;5035213;28;20211;-69
2021/10/22 10:01:31;;;;;;;2.47;1.85;;;8.90;99.90;;;;;;5033070;28;20200;-69
2021/10/22 10:03:58;;;;;;;2.97;1.33;;;8.90;99.90;;;;;;5034856;28;20339;-67
2021/10/22 10:06:24;;;;;;;0.85;0.75;;;9.00;99.90;;;;;;5035320;28;20177;-67
2021/10/22 10:08:50;;;;;;;0.20;0.10;;;8.90;99.90;;;;;;5034711;28;20188;-67
2021/10/22 10:11:16;;;;;;;1.75;0.60;;;8.80;99.90;;;;;;5035229;28;20434;-69
2021/10/22 10:13:42;;;;;;;0.97;0.80;;;8.80;99.90;;;;;;5035086;28;20511;-69
2021/10/22 10:16:09;;;;;;;0.40;0.30;;;8.70;99.90;;;;;;5035124;28;20686;-69
2021/10/22 10:18:44;;;;;;;0.22;0.20;;;8.60;99.90;;;;;;5034287;28;20256;-68
2021/10/22 10:21:13;;;;;;;0.22;0.17;;;8.70;99.90;;;;;;5017139;28;20237;-68
2021/10/22 10:23:42;;;;;;;0.30;0.30;;;8.80;99.90;;;;;;5017209;28;20683;-68
2021/10/22 10:26:22;;;;;;;0.30;0.30;;;8.90;99.90;;;;;;5034718;28;20194;-68
2021/10/22 10:28:50;;;;;;;2.85;0.70;;;8.90;99.90;;;;;;5034268;28;20285;-68
2021/10/22 10:31:39;;;;;;;0.30;0.20;;;8.90;99.90;;;;;;5017628;28;20176;-69
2021/10/22 10:34:42;;;;;;;0.43;0.43;;;9.00;99.90;;;;;;5034600;28;20255;-70
2021/10/22 10:37:35;;;;;;;0.32;0.30;;;8.90;99.90;;;;;;5015408;28;20659;-68
2021/10/22 10:40:12;;;;;;;0.30;0.30;;;8.90;99.90;;;;;;4997492;28;20186;-68
2021/10/22 10:42:57;;;;;;;5.95;0.50;;;8.90;99.90;;;;;;5015054;28;20716;-68
2021/10/22 10:45:23;;;;;;;1.48;0.30;;;8.90;99.90;;;;;;5015196;28;20174;-69
2021/10/22 10:48:02;;;;;;;0.93;0.63;;;9.00;99.90;;;;;;4996967;28;20220;-68
2021/10/22 10:50:58;;;;;;;0.50;0.50;;;9.10;99.90;;;;;;5014857;28;20203;-69
2021/10/22 10:53:33;;;;;;;0.43;0.32;;;8.90;99.90;;;;;;5024694;28;20532;-67
2021/10/22 10:56:00;;;;;;;2.50;1.10;;;8.90;99.90;;;;;;5034263;28;20272;-68
2021/10/22 10:58:26;;;;;;;0.30;0.30;;;8.80;99.90;;;;;;5016377;28;20180;-67
2021/10/22 11:01:06;;;;;;;0.38;0.32;;;8.80;99.90;;;;;;5034128;28;20184;-67
2021/10/22 11:03:48;;;;;;;0.30;0.30;;;8.70;99.90;;;;;;5033969;28;20180;-68
2021/10/22 11:06:35;;;;;;;0.20;0.20;;;8.70;99.90;;;;;;5033894;28;20263;-68
2021/10/22 11:09:03;;;;;;;0.20;0.20;;;8.80;99.90;;;;;;5016066;28;20177;-67
2021/10/22 11:11:33;;;;;;;0.40;0.30;;;8.80;99.90;;;;;;5034132;28;20193;-67
2021/10/22 11:14:02;;;;;;;0.20;0.20;;;8.80;99.90;;;;;;5033784;28;20262;-68
2021/10/22 11:19:01;;;;;;;0.20;0.20;;;8.90;99.90;;;;;;5033658;28;20186;-71
2021/10/22 11:21:29;;;;;;;0.93;0.75;;;8.90;99.90;;;;;;5016263;28;20513;-68
2021/10/22 11:23:56;;;;;;;0.20;0.10;;;8.90;99.90;;;;;;5016028;28;20188;-69
2021/10/22 11:26:25;;;;;;;0.20;0.20;;;9.00;99.90;;;;;;5033820;28;20180;-69
2021/10/22 11:28:53;;;;;;;0.20;0.20;;;9.00;99.90;;;;;;5033393;28;20315;-67
2021/10/22 11:31:37;;;;;;;0.20;0.20;;;9.10;99.90;;;;;;5033533;28;20180;-70
2021/10/22 11:34:04;;;;;;;0.30;0.20;;;9.30;99.90;;;;;;5033617;28;20190;-68
2021/10/22 11:36:30;;;;;;;0.20;0.20;;;9.40;99.90;;;;;;5033864;28;20189;-71
2021/10/22 11:38:55;;;;;;;0.27;0.23;;;9.60;99.90;;;;;;5033635;28;20188;-70
2021/10/22 11:41:21;;;;;;;0.30;0.30;;;9.70;99.90;;;;;;5033471;28;20424;-66
2021/10/22 11:44:06;;;;;;;0.30;0.20;;;9.60;99.90;;;;;;5033574;28;20178;-66
2021/10/22 11:46:46;;;;;;;0.47;0.20;;;9.60;99.90;;;;;;5032661;28;20487;-65
2021/10/22 11:49:37;;;;;;;0.50;0.38;;;9.60;99.90;;;;;;5033562;28;20188;-66
2021/10/22 11:52:09;;;;;;;0.60;0.60;;;9.50;99.90;;;;;;5033126;28;20304;-66
2021/10/22 11:54:47;;;;;;;0.60;0.40;;;9.30;99.90;;;;;;5033493;28;20244;-63
2021/10/22 11:57:22;;;;;;;0.20;0.20;;;9.20;99.90;;;;;;5033224;28;20177;-63
2021/10/22 11:59:54;;;;;;;1.48;0.40;;;9.10;99.90;;;;;;5033295;28;20198;-66
2021/10/22 12:02:21;;;;;;;0.50;0.30;;;9.10;99.90;;;;;;5033125;28;20191;-63
2021/10/22 12:04:52;;;;;;;0.20;0.20;;;9.10;99.90;;;;;;5033385;28;20631;-67
2021/10/22 12:07:17;;;;;;;0.20;0.20;;;9.00;99.90;;;;;;5015743;28;20273;-67
2021/10/22 12:09:43;;;;;;;0.20;0.20;;;8.90;99.90;;;;;;5032907;28;20535;-66
2021/10/22 12:12:14;;;;;;;0.93;0.50;;;8.80;99.90;;;;;;5033267;28;20207;-66
2021/10/22 12:14:46;;;;;;;0.30;0.20;;;8.80;99.90;;;;;;5033234;28;20173;-66
2021/10/22 12:17:25;;;;;;;0.30;0.20;;;9.00;99.90;;;;;;5033235;28;20203;-67
2021/10/22 12:19:53;;;;;;;0.20;0.20;;;9.00;99.90;;;;;;5033016;28;20632;-64
2021/10/22 12:22:29;;;;;;;0.95;0.50;;;9.20;99.90;;;;;;5028065;28;20197;-68
2021/10/22 12:24:57;;;;;;;0.65;0.43;;;9.10;99.90;;;;;;5032928;28;20176;-68
2021/10/22 12:27:27;;;;;;;0.20;0.17;;;9.10;99.90;;;;;;5032669;28;20258;-68
2021/10/22 12:29:59;;;;;;;0.20;0.20;;;9.20;99.90;;;;;;5032316;28;20182;-68
2021/10/22 12:32:43;;;;;;;0.20;0.20;;;9.20;99.90;;;;;;5032893;28;20190;-68
2021/10/22 12:35:21;;;;;;;0.20;0.20;;;9.10;99.90;;;;;;5018405;28;20264;-68
2021/10/22 12:38:17;;;;;;;4.57;0.50;;;9.00;99.90;;;;;;5032120;28;20188;-68
2021/10/22 12:40:51;;;;;;;0.20;0.20;;;9.00;99.90;;;;;;5030012;28;20206;-67
2021/10/22 12:43:35;;;;;;;0.20;0.20;;;8.80;99.90;;;;;;5031656;28;20188;-70
2021/10/22 12:46:13;;;;;;;1.05;0.55;;;8.60;99.90;;;;;;5032445;28;20189;-67
2021/10/22 12:48:52;;;;;;;0.50;0.30;;;8.30;99.90;;;;;;5032707;28;20666;-69
2021/10/22 12:51:26;;;;;;;0.20;0.10;;;8.10;99.90;;;;;;5032734;28;20322;-67
2021/10/22 12:53:59;;;;;;;0.20;0.10;;;8.00;99.90;;;;;;5032955;28;20214;-66
2021/10/22 12:56:26;;;;;;;0.20;0.10;;;8.10;99.90;;;;;;5033038;28;20182;-66
2021/10/22 12:59:03;;;;;;;0.40;0.40;;;8.30;99.90;;;;;;5036409;28;20177;-69
2021/10/22 13:01:33;;;;;;;0.30;0.20;;;8.40;99.90;;;;;;5036422;28;20193;-66
2021/10/22 13:04:03;;;;;;;1.00;0.57;;;8.50;99.90;;;;;;5016612;28;20215;-67
2021/10/22 13:09:18;;;;;;;5.47;2.45;;;8.50;99.90;;;;;;5018585;28;20181;-68
2021/10/22 13:22:29;;;;;;;0.50;0.30;;;8.90;99.90;;;;;;5035496;28;20202;-69
2021/10/22 13:24:56;;;;;;;0.30;0.30;;;8.90;99.90;;;;;;5035597;28;20185;-70
2021/10/22 13:27:27;;;;;;;0.30;0.20;;;8.90;99.90;;;;;;5035357;28;20609;-69